Recent forum postings ...
Today
Change wake turbulence after filing FP
Yesterday
KLM-VA site "not responding", is my flight toast?
3 days ago
Fly KLM Mon CTL
2021-04-09
SCHEDULE FLIGHT BOEING 737
2021-04-08
Law and rules in KLM VA
2021-04-04
Flying a Tour.


 
Aircraft IdentFlightrulesType of Flight
KLM958I
NumberType of AircraftWake turbulenceEquipmentTransponder Type
1B738
Departure AerodromeDeparture Time
EHAM1320
Cruising speedFlight level
31033000
Route
ARNEM L620 SUVOX Z718 OSN L980 DLE L986 MAG Z20 SUBIX L980 KELOD



Destination AerodromeTotal EETAlternative Aerodrome
EPPO0130
Other information
KLM VA /V/

Explanation of the IVAO flightplan

Schiphol (EHAM), Netherlands

METAR
EHAM 081625Z 22015KT 9999 BKN042 08/M01 Q1019 NOSIG

WINDSW at 17 mph
VISIBILITY16 miles
CONDITIONS
CLOUDSmostly cloudy
TEMP46°F (8°C)
WIND CHILL39°F (4°C)
DEWPT30°F (-1°C)
HUMIDITY53%
BAROMETER1019 hPa (30.09 in Hg)

RUNWAYS

RunwayDesignatorSurfaceHeadingLengthWidthAltitudeILSILS-Freq.Glidescope Pitch
18CENTERASPHALT183.223295.5 ft45.11 ft-3.35 ftCAT III ILS/DME 36C108.753
18LEFTASPHALT183.253393.64 ft45.11 ft-3.35 ftCAT III ILS/DME 36R111.953

Lawica (EPPO), Poland

METAR
EPPO 081830Z 27008KT CAVOK 04/M04 Q1020

WINDW at 9 mph
VISIBILITYgreater than 7 miles
CONDITIONS
CLOUDSclear skies
TEMP39°F (4°C)
WIND CHILL33°F (1°C)
DEWPT25°F (-4°C)
HUMIDITY56%
BAROMETER1020 hPa (30.12 in Hg)

Registration TimeGroundspeedAltitudeTransponderHeadingLongitudeLatitudeOn ground
17:07 08-04-20210 kts8 ft120024.7721752.30705Yes
17:100 kts8 ft014024.7721752.30705Yes
17:130 kts8 ft0140844.7722752.30646Yes
17:1619 kts8 ft01401534.7758552.30519Yes
17:19235 kts6264 ft01401204.7497752.213No
17:22389 kts13156 ft0140735.1355352.22159No
17:25437 kts20766 ft01401125.6842352.19333No
17:28468 kts25611 ft0140996.2679352.07633No
17:31465 kts29759 ft0140826.8982452.09213No
17:34458 kts33002 ft0140837.5190152.14252No
17:37458 kts33033 ft0140838.0863852.18569No
17:40458 kts33019 ft0140868.7576452.21701No
17:43458 kts33003 ft0140879.3804852.2369No
17:46458 kts33004 ft014010210.002152.23578No
17:49458 kts33032 ft014010210.5597152.16405No
17:52458 kts33043 ft014010311.2177452.07575No
17:55457 kts33052 ft01408411.824752.00274No
17:58457 kts33057 ft01407712.42752.08878No
18:01457 kts33044 ft01407712.9646852.1651No
18:04457 kts33034 ft01407813.6200852.25483No
18:07457 kts33033 ft01407814.2289752.33516No
18:10457 kts33033 ft014010014.7417552.36307No
18:13423 kts28923 ft014010115.4065552.28934No
18:16378 kts19837 ft01408615.9714552.23963No
18:19333 kts9807 ft01408516.4561452.26623No
18:22282 kts3735 ft014010816.8398752.21684No
18:25224 kts2968 ft014011017.1154452.26949No
18:28188 kts2974 ft014030717.2333152.3055No
18:31172 kts2606 ft014028817.0274652.38205No
18:34127 kts321 ft014028716.83652.41916No
18:3716 kts316 ft014019616.8290552.41833Yes
18:400 kts316 ft014018116.828552.41594Yes
18:430 kts316 ft014018116.828552.41594Yes